createdAt,value
2022-11-16T00:02:13.283Z,4.88
2022-11-16T00:04:40.113Z,4.60
2022-11-16T00:07:07.313Z,6.28
2022-11-16T00:09:34.018Z,4.15
2022-11-16T00:12:03.278Z,5.03
2022-11-16T00:14:32.953Z,3.92
2022-11-16T00:17:00.092Z,4.53
2022-11-16T00:19:26.892Z,5.75
2022-11-16T00:21:53.972Z,5.45
2022-11-16T00:24:22.025Z,9.80
2022-11-16T00:26:49.083Z,4.43
2022-11-16T00:29:16.989Z,5.25
2022-11-16T00:31:44.267Z,4.43
2022-11-16T00:34:10.906Z,4.63
2022-11-16T00:36:37.459Z,5.00
2022-11-16T00:39:04.090Z,4.55
2022-11-16T00:41:30.655Z,3.30
2022-11-16T00:43:57.202Z,5.43
2022-11-16T00:46:23.753Z,5.32
2022-11-16T00:48:50.323Z,4.35
2022-11-16T00:51:16.894Z,4.30
2022-11-16T00:53:43.455Z,4.63
2022-11-16T00:56:10.019Z,6.47
2022-11-16T00:58:36.831Z,5.28
2022-11-16T01:01:08.122Z,5.75
2022-11-16T01:03:36.070Z,4.20
2022-11-16T01:06:07.521Z,5.63
2022-11-16T01:08:36.348Z,6.30
2022-11-16T01:11:22.509Z,4.57
2022-11-16T01:13:49.429Z,5.65
2022-11-16T01:16:16.947Z,5.80
2022-11-16T01:18:44.491Z,5.25
2022-11-16T01:21:11.042Z,5.32
2022-11-16T01:23:37.643Z,8.07
2022-11-16T01:26:04.527Z,6.05
2022-11-16T01:28:32.086Z,6.47
2022-11-16T01:30:59.405Z,5.68
2022-11-16T01:33:25.974Z,6.35
2022-11-16T01:35:52.575Z,6.55
2022-11-16T01:38:19.219Z,7.60
2022-11-16T01:40:45.879Z,5.93
2022-11-16T01:43:49.275Z,9.35
2022-11-16T01:46:15.821Z,5.55
2022-11-16T01:48:42.563Z,6.18
2022-11-16T01:51:09.509Z,6.60
2022-11-16T01:53:36.603Z,6.70
2022-11-16T01:56:04.003Z,5.40
2022-11-16T01:58:31.486Z,6.80
2022-11-16T02:00:58.241Z,5.43
2022-11-16T02:03:26.388Z,5.88
2022-11-16T02:05:58.871Z,7.75
2022-11-16T02:08:53.642Z,5.03
2022-11-16T02:11:29.306Z,5.75
2022-11-16T02:14:06.302Z,5.25
2022-11-16T02:17:11.437Z,6.60
2022-11-16T02:19:43.881Z,5.80
2022-11-16T02:22:13.539Z,5.88
2022-11-16T02:24:44.901Z,5.93
2022-11-16T02:27:37.419Z,5.78
2022-11-16T02:30:05.211Z,8.43
2022-11-16T02:32:36.249Z,6.70
2022-11-16T02:35:14.854Z,5.80
2022-11-16T02:37:51.886Z,7.13
2022-11-16T02:40:21.578Z,6.63
2022-11-16T02:42:52.838Z,6.45
2022-11-16T02:45:23.326Z,5.57
2022-11-16T02:47:51.687Z,7.70
2022-11-16T02:50:21.141Z,6.45
2022-11-16T02:52:47.754Z,7.78
2022-11-16T02:55:14.353Z,6.18
2022-11-16T02:57:46.466Z,5.70
2022-11-16T03:00:18.710Z,6.60
2022-11-16T03:02:52.297Z,5.38
2022-11-16T03:05:32.014Z,6.13
2022-11-16T03:08:37.606Z,12.63
2022-11-16T03:11:24.754Z,7.38
2022-11-16T03:13:52.363Z,7.50
2022-11-16T03:16:43.876Z,6.83
2022-11-16T03:19:13.818Z,7.57
2022-11-16T03:21:54.530Z,6.63
2022-11-16T03:24:21.234Z,7.20
2022-11-16T03:27:21.338Z,6.35
2022-11-16T03:30:13.929Z,6.97
2022-11-16T03:32:55.378Z,9.15
2022-11-16T03:35:24.986Z,8.60
2022-11-16T03:37:53.533Z,9.07
2022-11-16T03:42:49.571Z,10.40
2022-11-16T03:45:17.387Z,7.75
2022-11-16T03:47:43.937Z,10.52
2022-11-16T03:50:11.147Z,8.40
2022-11-16T03:52:38.114Z,9.18
2022-11-16T03:55:05.508Z,8.10
2022-11-16T03:57:32.169Z,8.68
2022-11-16T03:59:58.741Z,8.90
2022-11-16T04:02:25.484Z,7.20
2022-11-16T04:05:10.433Z,10.07
2022-11-16T04:07:55.531Z,10.20
2022-11-16T04:10:40.467Z,11.25
2022-11-16T04:13:28.023Z,9.43
2022-11-16T04:16:13.155Z,8.93
2022-11-16T04:18:57.983Z,8.13
2022-11-16T04:21:52.751Z,7.60
2022-11-16T04:24:24.323Z,12.32
2022-11-16T04:27:13.682Z,9.65
2022-11-16T04:29:40.303Z,9.02
2022-11-16T04:32:26.984Z,10.60
2022-11-16T04:35:12.730Z,11.05
2022-11-16T04:37:54.775Z,11.65
2022-11-16T04:40:29.641Z,10.23
2022-11-16T04:43:01.568Z,10.45
2022-11-16T04:45:47.192Z,11.80
2022-11-16T04:48:14.983Z,10.48
2022-11-16T04:50:41.562Z,11.70
2022-11-16T04:53:08.502Z,9.50
2022-11-16T04:55:35.340Z,9.82
2022-11-16T04:58:02.421Z,11.10
2022-11-16T05:00:29.730Z,13.63
2022-11-16T05:03:00.981Z,11.60
2022-11-16T05:05:27.789Z,14.05
2022-11-16T05:07:54.390Z,9.98
2022-11-16T05:10:21.087Z,12.63
2022-11-16T05:12:47.688Z,11.43
2022-11-16T05:15:14.292Z,13.70
2022-11-16T05:17:40.931Z,11.50
2022-11-16T05:20:26.746Z,9.25
2022-11-16T05:22:54.968Z,11.52
2022-11-16T05:25:21.888Z,11.52
2022-11-16T05:27:48.582Z,11.18
2022-11-16T05:30:15.386Z,10.52
2022-11-16T05:32:41.939Z,11.63
2022-11-16T05:35:08.782Z,11.68
2022-11-16T05:37:35.414Z,13.82
2022-11-16T05:40:02.079Z,15.35
2022-11-16T05:42:28.656Z,11.57
2022-11-16T05:44:55.272Z,12.45
2022-11-16T05:47:21.907Z,11.95
2022-11-16T05:49:48.448Z,9.85
2022-11-16T05:52:15.008Z,11.20
2022-11-16T05:54:41.563Z,12.90
2022-11-16T05:57:08.112Z,12.73
2022-11-16T05:59:34.731Z,10.13
2022-11-16T06:02:01.335Z,12.18
2022-11-16T06:04:27.883Z,13.32
2022-11-16T06:06:54.542Z,11.05
2022-11-16T06:09:21.129Z,10.88
2022-11-16T06:11:47.701Z,11.32
2022-11-16T06:14:14.319Z,10.48
2022-11-16T06:16:40.950Z,10.57
2022-11-16T06:19:07.500Z,11.48
2022-11-16T06:21:34.207Z,11.00
2022-11-16T06:24:02.660Z,13.32
2022-11-16T06:28:55.694Z,9.60
2022-11-16T06:31:22.416Z,12.65
2022-11-16T06:33:49.035Z,14.15
2022-11-16T06:36:15.644Z,11.23
2022-11-16T06:38:42.223Z,11.70
2022-11-16T06:41:08.795Z,11.13
2022-11-16T06:43:35.346Z,11.18
2022-11-16T06:46:01.946Z,10.95
2022-11-16T06:48:28.662Z,11.55
2022-11-16T06:50:55.231Z,9.88
2022-11-16T06:53:27.575Z,11.80
2022-11-16T06:55:55.460Z,11.35
2022-11-16T06:58:22.020Z,12.93
2022-11-16T07:00:48.597Z,11.85
2022-11-16T07:03:15.196Z,13.70
2022-11-16T07:05:44.603Z,10.63
2022-11-16T07:08:11.202Z,17.33
2022-11-16T07:10:38.485Z,12.43
2022-11-16T07:13:05.807Z,14.05
2022-11-16T07:15:33.206Z,13.30
2022-11-16T07:18:05.134Z,14.73
2022-11-16T07:20:32.096Z,13.40
2022-11-16T07:23:02.563Z,13.25
2022-11-16T07:25:29.400Z,11.32
2022-11-16T07:27:57.790Z,14.85
2022-11-16T07:30:24.787Z,11.40
2022-11-16T07:32:51.356Z,11.82
2022-11-16T07:35:18.022Z,15.10
2022-11-16T07:37:44.673Z,13.43
2022-11-16T07:40:11.366Z,13.48
2022-11-16T07:42:37.999Z,13.02
2022-11-16T07:45:04.944Z,15.77
2022-11-16T07:47:36.040Z,12.52
2022-11-16T07:50:02.755Z,14.60
2022-11-16T07:52:29.339Z,14.10
2022-11-16T07:54:55.910Z,17.67
2022-11-16T07:57:22.534Z,14.10
2022-11-16T07:59:49.095Z,12.23
2022-11-16T08:02:15.703Z,13.52
2022-11-16T08:04:42.305Z,13.07
2022-11-16T08:07:08.931Z,13.57
2022-11-16T08:09:37.970Z,12.55
2022-11-16T08:12:04.823Z,11.57
2022-11-16T08:14:31.404Z,13.95
2022-11-16T08:16:57.982Z,15.63
2022-11-16T08:19:24.588Z,11.70
2022-11-16T08:21:51.157Z,11.63
2022-11-16T08:24:18.230Z,13.88
2022-11-16T08:26:44.827Z,11.15
2022-11-16T08:29:11.651Z,12.02
2022-11-16T08:31:38.319Z,17.42
2022-11-16T08:34:04.988Z,12.02
2022-11-16T08:36:31.538Z,12.88
2022-11-16T08:38:58.135Z,14.40
2022-11-16T08:41:24.745Z,20.55
2022-11-16T08:43:53.244Z,11.50
2022-11-16T08:46:20.458Z,11.52
2022-11-16T08:48:47.108Z,11.88
2022-11-16T08:51:18.510Z,11.90
2022-11-16T08:53:48.355Z,12.73
2022-11-16T08:56:16.742Z,11.57
2022-11-16T08:58:44.417Z,15.55
2022-11-16T09:01:17.063Z,12.30
2022-11-16T09:03:43.898Z,15.75
2022-11-16T09:06:11.196Z,12.32
2022-11-16T09:08:40.414Z,13.23
2022-11-16T09:11:08.363Z,11.30
2022-11-16T09:13:34.954Z,15.63
2022-11-16T09:16:01.952Z,14.18
2022-11-16T09:18:29.027Z,11.20
2022-11-16T09:20:55.896Z,11.35
2022-11-16T09:23:25.489Z,12.55
2022-11-16T09:25:52.762Z,12.07
2022-11-16T09:28:20.150Z,10.15
2022-11-16T09:30:48.818Z,10.50
2022-11-16T09:33:15.482Z,11.75
2022-11-16T09:35:42.134Z,9.65
2022-11-16T09:38:10.051Z,10.27
2022-11-16T09:40:38.351Z,14.02
2022-11-16T09:43:32.364Z,12.80
2022-11-16T09:46:06.281Z,11.15
2022-11-16T09:48:36.092Z,11.63
2022-11-16T09:51:08.191Z,11.70
2022-11-16T09:53:55.359Z,11.32
2022-11-16T09:56:23.668Z,9.52
2022-11-16T09:58:57.438Z,9.50
2022-11-16T10:01:35.247Z,10.50
2022-11-16T10:04:12.791Z,9.60
2022-11-16T10:07:02.645Z,9.90
2022-11-16T10:09:30.289Z,10.85
2022-11-16T10:12:22.391Z,9.63
2022-11-16T10:15:01.542Z,10.38
2022-11-16T10:17:42.182Z,13.55
2022-11-16T10:20:14.599Z,11.82
2022-11-16T10:22:50.275Z,12.10
2022-11-16T10:25:20.786Z,11.32
2022-11-16T10:28:13.730Z,12.23
2022-11-16T10:30:58.188Z,11.10
2022-11-16T10:33:25.699Z,8.60
2022-11-16T10:35:56.989Z,9.45
2022-11-16T10:38:33.180Z,10.00
2022-11-16T10:41:18.431Z,9.65
2022-11-16T10:43:45.505Z,8.07
2022-11-16T10:46:23.450Z,7.75
2022-11-16T10:49:13.551Z,8.63
2022-11-16T10:51:40.136Z,7.32
2022-11-16T10:54:17.422Z,8.88
2022-11-16T10:56:46.730Z,6.90
2022-11-16T10:59:15.286Z,10.45
2022-11-16T11:04:25.852Z,8.07
2022-11-16T11:07:00.199Z,6.82
2022-11-16T11:09:28.082Z,7.32
2022-11-16T11:12:20.394Z,8.38
2022-11-16T11:15:02.977Z,7.20
2022-11-16T11:17:30.896Z,7.72
2022-11-16T11:20:03.671Z,6.72
2022-11-16T11:22:31.950Z,6.63
2022-11-16T11:24:59.190Z,6.78
2022-11-16T11:27:31.095Z,6.75
2022-11-16T11:30:00.868Z,6.07
2022-11-16T11:32:32.814Z,7.00
2022-11-16T11:35:01.040Z,7.80
2022-11-16T11:37:32.513Z,6.95
2022-11-16T11:40:20.147Z,7.00
2022-11-16T11:42:54.324Z,7.43
2022-11-16T11:45:44.159Z,7.35
2022-11-16T11:48:34.248Z,8.82
2022-11-16T11:51:21.839Z,9.70
2022-11-16T11:53:55.852Z,10.38
2022-11-16T11:56:23.642Z,9.38
2022-11-16T11:58:50.415Z,9.45
2022-11-16T12:01:39.025Z,11.00
2022-11-16T12:04:23.691Z,13.30
2022-11-16T12:06:58.959Z,12.85
2022-11-16T12:09:44.268Z,12.63
2022-11-16T12:12:14.642Z,12.77
2022-11-16T12:15:03.284Z,12.68
2022-11-16T12:18:03.987Z,9.68
2022-11-16T12:20:43.196Z,9.70
2022-11-16T12:23:28.362Z,11.38
2022-11-16T12:26:16.095Z,8.43
2022-11-16T12:29:00.651Z,8.02
2022-11-16T12:31:42.492Z,10.13
2022-11-16T12:34:36.691Z,10.40
2022-11-16T12:37:16.862Z,8.00
2022-11-16T12:39:45.457Z,12.32
2022-11-16T12:44:44.265Z,11.10
2022-11-16T12:47:27.373Z,6.70
2022-11-16T12:50:21.692Z,8.50
2022-11-16T12:53:22.570Z,9.60
2022-11-16T12:55:55.187Z,9.05
2022-11-16T12:58:49.184Z,7.63
2022-11-16T13:01:26.421Z,8.07
2022-11-16T13:03:55.393Z,10.75
2022-11-16T13:06:35.362Z,9.57
2022-11-16T13:09:05.983Z,9.73
2022-11-16T13:11:57.390Z,3.60
2022-11-16T13:14:29.216Z,5.35
2022-11-16T13:16:56.255Z,7.40
2022-11-16T13:19:23.736Z,5.45
2022-11-16T13:22:13.826Z,6.30
2022-11-16T13:24:46.481Z,5.40
2022-11-16T13:27:28.391Z,6.55
2022-11-16T13:30:01.223Z,9.00
2022-11-16T13:32:30.864Z,8.23
2022-11-16T13:34:59.095Z,9.93
2022-11-16T13:37:38.169Z,7.47
2022-11-16T13:40:04.960Z,8.55
2022-11-16T13:42:53.307Z,6.90
2022-11-16T13:47:58.269Z,7.13
2022-11-16T13:50:37.429Z,6.32
2022-11-16T13:53:57.534Z,6.18
2022-11-16T13:55:56.845Z,9.13
2022-11-16T13:58:23.895Z,6.93
2022-11-16T14:01:03.168Z,4.63
2022-11-16T14:03:38.566Z,6.43
2022-11-16T14:06:28.302Z,5.03
2022-11-16T14:08:58.821Z,8.73
2022-11-16T14:11:38.943Z,6.10
2022-11-16T14:15:03.743Z,5.57
2022-11-16T14:17:54.004Z,8.35
2022-11-16T14:20:51.920Z,9.02
2022-11-16T14:23:48.171Z,5.07
2022-11-16T14:26:18.758Z,3.25
2022-11-16T14:28:55.427Z,6.97
2022-11-16T14:31:29.655Z,4.78
2022-11-16T14:33:58.257Z,3.95
2022-11-16T14:39:24.992Z,6.68
2022-11-16T14:41:52.040Z,4.60
2022-11-16T14:44:24.984Z,3.63
2022-11-16T14:46:51.551Z,11.52
2022-11-16T14:49:18.553Z,7.43
2022-11-16T14:51:47.908Z,9.52
2022-11-16T14:54:38.536Z,5.90
2022-11-16T14:57:08.463Z,4.28
2022-11-16T14:59:35.279Z,3.72
2022-11-16T15:02:12.290Z,4.28
2022-11-16T15:04:38.932Z,4.57
2022-11-16T15:07:05.848Z,3.60
2022-11-16T15:09:38.742Z,5.30
2022-11-16T15:12:25.847Z,4.75
2022-11-16T15:14:54.998Z,3.80
2022-11-16T15:17:30.094Z,4.15
2022-11-16T15:20:02.075Z,5.55
2022-11-16T15:22:31.038Z,5.20
2022-11-16T15:24:59.776Z,9.20
2022-11-16T15:27:36.532Z,3.03
2022-11-16T15:30:14.355Z,5.03
2022-11-16T15:32:45.349Z,4.00
2022-11-16T15:35:19.316Z,7.45
2022-11-16T15:37:45.993Z,4.75
2022-11-16T15:40:13.803Z,2.25
2022-11-16T15:42:41.879Z,3.15
2022-11-16T15:45:24.725Z,4.53
2022-11-16T15:47:54.924Z,7.07
2022-11-16T15:50:25.838Z,3.63
2022-11-16T15:52:58.116Z,5.70
2022-11-16T15:55:24.729Z,6.13
2022-11-16T15:58:25.687Z,5.97
2022-11-16T16:00:53.358Z,7.70
2022-11-16T16:03:31.860Z,9.20
2022-11-16T16:08:35.616Z,11.52
2022-11-16T16:11:20.344Z,8.52
2022-11-16T16:16:29.865Z,5.25
2022-11-16T16:19:01.577Z,8.73
2022-11-16T16:21:45.639Z,10.00
2022-11-16T16:24:42.385Z,8.70
2022-11-16T16:27:20.727Z,9.52
2022-11-16T16:29:49.549Z,13.25
2022-11-16T16:32:20.864Z,8.50
2022-11-16T16:34:47.435Z,8.50
2022-11-16T16:37:14.128Z,9.63
2022-11-16T16:39:42.098Z,9.32
2022-11-16T16:42:11.766Z,12.15
2022-11-16T16:44:39.788Z,16.13
2022-11-16T16:47:06.769Z,14.15
2022-11-16T16:49:33.424Z,18.13
2022-11-16T16:52:00.234Z,20.33
2022-11-16T16:54:28.756Z,21.60
2022-11-16T16:59:24.110Z,20.23
2022-11-16T17:01:51.691Z,21.98
2022-11-16T17:04:18.715Z,18.42
2022-11-16T17:06:46.752Z,24.67
2022-11-16T17:09:13.901Z,22.52
2022-11-16T17:11:40.720Z,21.08
2022-11-16T17:14:08.262Z,24.30
2022-11-16T17:16:36.093Z,25.33
2022-11-16T17:19:04.100Z,17.85
2022-11-16T17:21:31.263Z,24.45
2022-11-16T17:23:58.071Z,24.77
2022-11-16T17:26:29.250Z,22.02
2022-11-16T17:28:57.088Z,21.90
2022-11-16T17:31:24.552Z,22.85
2022-11-16T17:33:51.486Z,21.55
2022-11-16T17:36:18.365Z,21.25
2022-11-16T17:38:45.746Z,21.33
2022-11-16T17:41:15.336Z,24.65
2022-11-16T17:43:43.960Z,22.17
2022-11-16T17:48:38.081Z,21.55
2022-11-16T17:51:05.546Z,21.63
2022-11-16T17:53:36.567Z,23.17
2022-11-16T17:56:04.194Z,22.67
2022-11-16T17:58:31.050Z,20.52
2022-11-16T18:00:57.953Z,20.30
2022-11-16T18:03:25.255Z,21.58
2022-11-16T18:05:52.006Z,24.25
2022-11-16T18:08:18.620Z,19.27
2022-11-16T18:10:45.228Z,20.70
2022-11-16T18:13:11.791Z,20.73
2022-11-16T18:15:42.304Z,24.48
2022-11-16T18:18:09.186Z,22.00
2022-11-16T18:20:37.014Z,26.27
2022-11-16T18:23:04.694Z,24.00
2022-11-16T18:25:34.604Z,21.60
2022-11-16T18:28:01.232Z,22.67
2022-11-16T18:30:27.849Z,24.40
2022-11-16T18:32:54.551Z,24.55
2022-11-16T18:35:21.148Z,22.63
2022-11-16T18:37:47.726Z,23.15
2022-11-16T18:40:15.046Z,23.48
2022-11-16T18:42:41.918Z,25.30
2022-11-16T18:45:08.982Z,25.35
2022-11-16T18:47:35.590Z,26.48
2022-11-16T18:50:02.544Z,28.65
2022-11-16T18:52:29.362Z,26.00
2022-11-16T18:54:56.003Z,26.20
2022-11-16T18:57:22.567Z,25.40
2022-11-16T18:59:49.151Z,29.60
2022-11-16T19:02:15.764Z,26.60
2022-11-16T19:04:42.780Z,26.80
2022-11-16T19:07:09.391Z,24.83
2022-11-16T19:09:36.012Z,23.25
2022-11-16T19:12:02.588Z,26.77
2022-11-16T19:14:29.172Z,24.33
2022-11-16T19:16:57.318Z,23.73
2022-11-16T19:19:25.383Z,24.27
2022-11-16T19:21:52.210Z,22.90
2022-11-16T19:24:18.986Z,26.38
2022-11-16T19:26:45.926Z,23.52
2022-11-16T19:29:12.544Z,24.75
2022-11-16T19:31:39.152Z,24.52
2022-11-16T19:34:07.612Z,25.58
2022-11-16T19:36:36.046Z,33.80
2022-11-16T19:39:03.710Z,23.67
2022-11-16T19:41:30.342Z,24.57
2022-11-16T19:43:59.981Z,25.38
2022-11-16T19:46:28.405Z,25.10
2022-11-16T19:48:55.571Z,30.42
2022-11-16T19:51:24.405Z,23.27
2022-11-16T19:53:51.396Z,23.25
2022-11-16T19:56:20.277Z,23.52
2022-11-16T19:58:46.918Z,23.30
2022-11-16T20:01:18.793Z,22.40
2022-11-16T20:03:46.252Z,25.98
2022-11-16T20:06:15.019Z,26.63
2022-11-16T20:08:47.104Z,20.80
2022-11-16T20:11:18.487Z,22.88
2022-11-16T20:13:45.107Z,27.70
2022-11-16T20:16:12.810Z,27.27
2022-11-16T20:18:41.017Z,29.57
2022-11-16T20:21:08.978Z,31.25
2022-11-16T20:23:35.916Z,28.67
2022-11-16T20:26:06.883Z,25.80
2022-11-16T20:28:35.159Z,28.23
2022-11-16T20:31:05.197Z,25.80
2022-11-16T20:33:35.574Z,25.67
2022-11-16T20:36:03.824Z,27.88
2022-11-16T20:38:35.939Z,29.10
2022-11-16T20:41:16.728Z,23.70
2022-11-16T20:43:44.380Z,23.52
2022-11-16T20:46:13.101Z,30.50
2022-11-16T20:48:40.816Z,27.15
2022-11-16T20:51:08.426Z,30.87
2022-11-16T20:53:35.596Z,28.33
2022-11-16T20:56:03.254Z,28.83
2022-11-16T20:58:30.923Z,30.85
2022-11-16T21:01:06.095Z,23.40
2022-11-16T21:03:33.242Z,27.05
2022-11-16T21:06:00.119Z,24.83
2022-11-16T21:08:26.836Z,24.13
2022-11-16T21:10:54.097Z,24.30
2022-11-16T21:13:39.549Z,27.55
2022-11-16T21:16:08.390Z,27.75
2022-11-16T21:18:34.992Z,23.60
2022-11-16T21:21:06.951Z,25.52
2022-11-16T21:23:35.032Z,25.00
2022-11-16T21:26:05.638Z,24.65
2022-11-16T21:28:32.884Z,24.15
2022-11-16T21:31:05.617Z,21.77
2022-11-16T21:33:33.220Z,26.90
2022-11-16T21:36:07.664Z,25.05
2022-11-16T21:38:34.440Z,26.95
2022-11-16T21:41:01.657Z,29.00
2022-11-16T21:43:28.448Z,26.92
2022-11-16T21:46:01.530Z,28.42
2022-11-16T21:48:28.135Z,30.63
2022-11-16T21:51:14.595Z,24.88
2022-11-16T21:53:41.236Z,32.00
2022-11-16T21:56:13.252Z,24.23
2022-11-16T21:58:40.314Z,26.73
2022-11-16T22:01:07.085Z,29.33
2022-11-16T22:03:33.998Z,23.92
2022-11-16T22:06:21.009Z,25.95
2022-11-16T22:08:48.283Z,27.17
2022-11-16T22:11:15.928Z,27.55
2022-11-16T22:13:43.281Z,24.47
2022-11-16T22:16:11.721Z,27.35
2022-11-16T22:18:38.871Z,24.88
2022-11-16T22:21:06.955Z,25.65
2022-11-16T22:23:34.190Z,26.30
2022-11-16T22:26:02.432Z,28.42
2022-11-16T22:28:29.121Z,25.17
2022-11-16T22:31:02.406Z,26.23
2022-11-16T22:33:29.437Z,24.70
2022-11-16T22:35:56.378Z,30.08
2022-11-16T22:38:23.430Z,23.48
2022-11-16T22:40:54.001Z,27.77
2022-11-16T22:43:21.923Z,30.08
2022-11-16T22:45:48.787Z,25.40
2022-11-16T22:48:15.620Z,23.13
2022-11-16T22:50:42.426Z,28.08
2022-11-16T22:53:09.890Z,28.98
2022-11-16T22:55:37.759Z,28.35
2022-11-16T22:58:05.582Z,31.40
2022-11-16T23:00:37.522Z,29.23
2022-11-16T23:03:07.554Z,30.15
2022-11-16T23:05:34.208Z,31.77
2022-11-16T23:08:00.792Z,30.52
2022-11-16T23:10:27.399Z,29.55
2022-11-16T23:13:12.699Z,32.72
2022-11-16T23:15:51.041Z,31.55
2022-11-16T23:18:19.575Z,27.25
2022-11-16T23:23:49.451Z,29.58
2022-11-16T23:26:41.874Z,32.03
2022-11-16T23:29:10.022Z,25.95
2022-11-16T23:31:37.344Z,33.03
2022-11-16T23:34:04.859Z,32.95
2022-11-16T23:36:31.490Z,26.67
2022-11-16T23:38:58.106Z,28.75
2022-11-16T23:41:43.247Z,28.13
2022-11-16T23:44:09.868Z,24.65
2022-11-16T23:46:36.517Z,26.00
2022-11-16T23:49:03.234Z,23.02
2022-11-16T23:51:29.802Z,22.13
2022-11-16T23:53:56.547Z,28.77
2022-11-16T23:56:23.506Z,23.35
2022-11-16T23:58:50.281Z,28.42
